TimeCDT,TemperatureF,Dew PointF,Humidity,Sea Level PressureIn,VisibilityMPH,Wind Direction,Wind SpeedMPH,Gust SpeedMPH,PrecipitationIn,Events,Conditions,WindDirDegrees,DateUTC
12:53 AM,78.1,72.0,81,30.04,10.0,Calm,Calm,-,N/A,,Clear,0,2013-06-24 05:53:00
1:53 AM,73.9,72.0,93,30.04,8.0,SE,3.5,-,N/A,,Clear,140,2013-06-24 06:53:00
2:53 AM,75.0,71.1,87,30.04,10.0,Calm,Calm,-,N/A,,Clear,0,2013-06-24 07:53:00
3:53 AM,72.0,70.0,93,30.04,7.0,SE,4.6,-,N/A,,Clear,130,2013-06-24 08:53:00
4:53 AM,73.0,71.1,93,30.05,9.0,Calm,Calm,-,N/A,,Clear,0,2013-06-24 09:53:00
5:53 AM,72.0,70.0,93,30.06,8.0,SSE,3.5,-,N/A,,Clear,160,2013-06-24 10:53:00
6:53 AM,73.9,71.1,91,30.07,7.0,Calm,Calm,-,N/A,,Clear,0,2013-06-24 11:53:00
7:53 AM,77.0,72.0,84,30.09,8.0,South,4.6,-,N/A,,Clear,170,2013-06-24 12:53:00
8:53 AM,81.0,73.0,77,30.11,10.0,South,8.1,-,N/A,,Clear,180,2013-06-24 13:53:00
9:53 AM,84.9,73.9,69,30.10,10.0,SSW,6.9,-,N/A,,Clear,200,2013-06-24 14:53:00
10:53 AM,86.0,73.0,65,30.10,10.0,South,9.2,-,N/A,,Clear,190,2013-06-24 15:53:00
11:53 AM,87.1,73.0,63,30.09,10.0,WSW,6.9,16.1,N/A,,Mostly Cloudy,240,2013-06-24 16:53:00
12:53 PM,88.0,72.0,59,30.07,10.0,SSW,10.4,-,N/A,,Mostly Cloudy,210,2013-06-24 17:53:00
1:53 PM,90.0,72.0,55,30.05,10.0,SSW,6.9,17.3,N/A,,Scattered Clouds,210,2013-06-24 18:53:00
2:53 PM,91.0,72.0,53,30.03,10.0,SW,10.4,-,N/A,,Clear,220,2013-06-24 19:53:00
3:53 PM,91.0,73.0,55,30.01,10.0,SSW,10.4,-,N/A,,Partly Cloudy,200,2013-06-24 20:53:00
4:53 PM,91.0,72.0,53,30.00,10.0,South,9.2,-,N/A,,Clear,190,2013-06-24 21:53:00
5:53 PM,90.0,71.1,54,30.00,10.0,South,11.5,-,N/A,,Clear,190,2013-06-24 22:53:00
6:53 PM,89.1,72.0,57,30.00,10.0,South,8.1,-,N/A,,Clear,180,2013-06-24 23:53:00
7:53 PM,84.0,73.9,72,29.99,10.0,South,5.8,-,N/A,,Clear,180,2013-06-25 00:53:00
8:53 PM,82.0,73.0,74,30.00,10.0,SSE,4.6,-,N/A,,Clear,160,2013-06-25 01:53:00
9:53 PM,80.1,73.9,81,30.01,10.0,SSE,3.5,-,N/A,,Clear,160,2013-06-25 02:53:00
10:53 PM,79.0,73.9,84,30.01,10.0,SSE,4.6,-,N/A,,Clear,160,2013-06-25 03:53:00
11:53 PM,78.1,73.9,87,30.04,10.0,South,8.1,-,N/A,,Clear,180,2013-06-25 04:53:00